sensor_id;sensor_type;location;lat;lon;timestamp;P1;durP1;ratioP1;P2;durP2;ratioP2
43160;SDS011;40968;52.342;5.528;2023-09-12T00:00:04;77.32;;;28.33;;
43160;SDS011;40968;52.342;5.528;2023-09-12T00:02:31;79.03;;;26.60;;
43160;SDS011;40968;52.342;5.528;2023-09-12T00:04:58;80.38;;;26.70;;
43160;SDS011;40968;52.342;5.528;2023-09-12T00:07:26;79.57;;;26.05;;
43160;SDS011;40968;52.342;5.528;2023-09-12T00:09:53;76.18;;;27.55;;
43160;SDS011;40968;52.342;5.528;2023-09-12T00:12:21;80.13;;;28.13;;
43160;SDS011;40968;52.342;5.528;2023-09-12T00:14:49;72.50;;;27.92;;
43160;SDS011;40968;52.342;5.528;2023-09-12T00:17:16;79.05;;;27.58;;
43160;SDS011;40968;52.342;5.528;2023-09-12T00:19:42;71.32;;;27.23;;
43160;SDS011;40968;52.342;5.528;2023-09-12T00:22:09;72.35;;;25.98;;
43160;SDS011;40968;52.342;5.528;2023-09-12T00:24:37;71.50;;;25.92;;
43160;SDS011;40968;52.342;5.528;2023-09-12T00:27:04;71.72;;;26.10;;
43160;SDS011;40968;52.342;5.528;2023-09-12T00:29:31;77.43;;;26.63;;
43160;SDS011;40968;52.342;5.528;2023-09-12T00:31:57;87.50;;;26.63;;
43160;SDS011;40968;52.342;5.528;2023-09-12T00:34:24;75.63;;;24.63;;
43160;SDS011;40968;52.342;5.528;2023-09-12T00:36:51;74.30;;;25.52;;
43160;SDS011;40968;52.342;5.528;2023-09-12T00:39:17;75.88;;;26.60;;
43160;SDS011;40968;52.342;5.528;2023-09-12T00:41:45;70.70;;;25.70;;
43160;SDS011;40968;52.342;5.528;2023-09-12T00:44:12;72.35;;;26.77;;
43160;SDS011;40968;52.342;5.528;2023-09-12T00:46:39;80.95;;;26.75;;
43160;SDS011;40968;52.342;5.528;2023-09-12T00:49:06;87.43;;;28.50;;
43160;SDS011;40968;52.342;5.528;2023-09-12T00:51:35;81.13;;;27.75;;
43160;SDS011;40968;52.342;5.528;2023-09-12T00:54:03;77.25;;;26.75;;
43160;SDS011;40968;52.342;5.528;2023-09-12T00:56:30;75.43;;;25.77;;
43160;SDS011;40968;52.342;5.528;2023-09-12T00:58:58;71.45;;;24.35;;
43160;SDS011;40968;52.342;5.528;2023-09-12T01:01:26;81.95;;;25.95;;
43160;SDS011;40968;52.342;5.528;2023-09-12T01:03:53;82.22;;;26.08;;
43160;SDS011;40968;52.342;5.528;2023-09-12T01:06:21;67.75;;;24.20;;
43160;SDS011;40968;52.342;5.528;2023-09-12T01:08:51;73.80;;;26.40;;
43160;SDS011;40968;52.342;5.528;2023-09-12T01:11:17;78.38;;;26.98;;
43160;SDS011;40968;52.342;5.528;2023-09-12T01:13:44;59.05;;;20.63;;
43160;SDS011;40968;52.342;5.528;2023-09-12T01:16:12;77.55;;;27.52;;
43160;SDS011;40968;52.342;5.528;2023-09-12T01:18:39;71.97;;;24.85;;
43160;SDS011;40968;52.342;5.528;2023-09-12T01:21:12;71.55;;;26.35;;
43160;SDS011;40968;52.342;5.528;2023-09-12T01:23:55;86.78;;;27.77;;
43160;SDS011;40968;52.342;5.528;2023-09-12T01:26:38;66.88;;;22.45;;
43160;SDS011;40968;52.342;5.528;2023-09-12T01:29:14;77.35;;;27.55;;
43160;SDS011;40968;52.342;5.528;2023-09-12T01:31:42;95.80;;;29.33;;
43160;SDS011;40968;52.342;5.528;2023-09-12T01:34:10;89.35;;;30.00;;
43160;SDS011;40968;52.342;5.528;2023-09-12T01:36:38;81.30;;;27.30;;
43160;SDS011;40968;52.342;5.528;2023-09-12T01:39:04;81.53;;;27.25;;
43160;SDS011;40968;52.342;5.528;2023-09-12T01:41:32;76.10;;;27.50;;
43160;SDS011;40968;52.342;5.528;2023-09-12T01:44:04;72.50;;;26.00;;
43160;SDS011;40968;52.342;5.528;2023-09-12T01:46:33;84.57;;;29.15;;
43160;SDS011;40968;52.342;5.528;2023-09-12T01:49:02;84.05;;;29.98;;
43160;SDS011;40968;52.342;5.528;2023-09-12T01:51:30;85.88;;;29.65;;
43160;SDS011;40968;52.342;5.528;2023-09-12T01:53:57;82.60;;;29.10;;
43160;SDS011;40968;52.342;5.528;2023-09-12T01:56:26;74.90;;;28.67;;
43160;SDS011;40968;52.342;5.528;2023-09-12T01:58:54;97.43;;;31.50;;
43160;SDS011;40968;52.342;5.528;2023-09-12T02:01:20;87.03;;;29.60;;
43160;SDS011;40968;52.342;5.528;2023-09-12T02:03:49;91.22;;;30.02;;
43160;SDS011;40968;52.342;5.528;2023-09-12T02:06:15;80.97;;;26.75;;
43160;SDS011;40968;52.342;5.528;2023-09-12T02:08:42;84.40;;;28.92;;
43160;SDS011;40968;52.342;5.528;2023-09-12T02:11:08;94.57;;;29.45;;
43160;SDS011;40968;52.342;5.528;2023-09-12T02:13:35;73.47;;;25.70;;
43160;SDS011;40968;52.342;5.528;2023-09-12T02:16:02;93.85;;;29.15;;
43160;SDS011;40968;52.342;5.528;2023-09-12T02:18:29;76.82;;;27.67;;
43160;SDS011;40968;52.342;5.528;2023-09-12T02:20:57;97.43;;;32.40;;
43160;SDS011;40968;52.342;5.528;2023-09-12T02:23:24;97.72;;;31.27;;
43160;SDS011;40968;52.342;5.528;2023-09-12T02:25:51;102.43;;;34.40;;
43160;SDS011;40968;52.342;5.528;2023-09-12T02:28:18;101.10;;;33.15;;
43160;SDS011;40968;52.342;5.528;2023-09-12T02:30:44;80.30;;;27.58;;
43160;SDS011;40968;52.342;5.528;2023-09-12T02:33:11;98.07;;;33.35;;
43160;SDS011;40968;52.342;5.528;2023-09-12T02:35:37;91.88;;;30.67;;
43160;SDS011;40968;52.342;5.528;2023-09-12T02:38:05;86.13;;;28.48;;
43160;SDS011;40968;52.342;5.528;2023-09-12T02:40:33;88.63;;;30.90;;
43160;SDS011;40968;52.342;5.528;2023-09-12T02:43:00;86.60;;;28.17;;
43160;SDS011;40968;52.342;5.528;2023-09-12T02:45:27;99.28;;;33.35;;
43160;SDS011;40968;52.342;5.528;2023-09-12T02:47:53;114.78;;;35.85;;
43160;SDS011;40968;52.342;5.528;2023-09-12T02:50:20;99.40;;;30.92;;
43160;SDS011;40968;52.342;5.528;2023-09-12T02:52:47;105.63;;;35.42;;
43160;SDS011;40968;52.342;5.528;2023-09-12T02:55:15;111.65;;;34.08;;
43160;SDS011;40968;52.342;5.528;2023-09-12T02:57:41;91.07;;;31.55;;
43160;SDS011;40968;52.342;5.528;2023-09-12T03:00:08;88.20;;;28.50;;
43160;SDS011;40968;52.342;5.528;2023-09-12T03:02:36;100.40;;;34.08;;
43160;SDS011;40968;52.342;5.528;2023-09-12T03:05:03;103.65;;;32.05;;
43160;SDS011;40968;52.342;5.528;2023-09-12T03:07:30;97.97;;;33.10;;
43160;SDS011;40968;52.342;5.528;2023-09-12T03:09:57;96.93;;;33.15;;
43160;SDS011;40968;52.342;5.528;2023-09-12T03:12:25;97.47;;;33.78;;
43160;SDS011;40968;52.342;5.528;2023-09-12T03:14:51;110.78;;;35.25;;
43160;SDS011;40968;52.342;5.528;2023-09-12T03:17:19;98.00;;;32.65;;
43160;SDS011;40968;52.342;5.528;2023-09-12T03:19:46;97.45;;;34.33;;
43160;SDS011;40968;52.342;5.528;2023-09-12T03:22:12;112.22;;;33.67;;
43160;SDS011;40968;52.342;5.528;2023-09-12T03:24:39;108.32;;;37.55;;
43160;SDS011;40968;52.342;5.528;2023-09-12T03:27:06;147.93;;;38.60;;
43160;SDS011;40968;52.342;5.528;2023-09-12T03:29:35;238.65;;;42.45;;
43160;SDS011;40968;52.342;5.528;2023-09-12T03:32:01;456.65;;;57.30;;
43160;SDS011;40968;52.342;5.528;2023-09-12T03:34:28;212.40;;;35.97;;
43160;SDS011;40968;52.342;5.528;2023-09-12T03:36:55;461.48;;;49.53;;
43160;SDS011;40968;52.342;5.528;2023-09-12T03:39:22;373.67;;;41.05;;
43160;SDS011;40968;52.342;5.528;2023-09-12T03:41:48;265.88;;;35.95;;
43160;SDS011;40968;52.342;5.528;2023-09-12T03:44:15;195.23;;;30.27;;
43160;SDS011;40968;52.342;5.528;2023-09-12T03:46:43;169.43;;;28.75;;
43160;SDS011;40968;52.342;5.528;2023-09-12T03:49:10;181.95;;;34.40;;
43160;SDS011;40968;52.342;5.528;2023-09-12T03:51:36;162.95;;;36.45;;
43160;SDS011;40968;52.342;5.528;2023-09-12T03:54:04;130.75;;;33.20;;
43160;SDS011;40968;52.342;5.528;2023-09-12T03:56:31;138.13;;;34.42;;
43160;SDS011;40968;52.342;5.528;2023-09-12T03:58:57;122.15;;;34.70;;
43160;SDS011;40968;52.342;5.528;2023-09-12T04:01:25;171.82;;;38.10;;
43160;SDS011;40968;52.342;5.528;2023-09-12T04:03:53;240.43;;;44.67;;
43160;SDS011;40968;52.342;5.528;2023-09-12T04:06:19;177.15;;;34.15;;
43160;SDS011;40968;52.342;5.528;2023-09-12T04:08:46;176.77;;;37.88;;
43160;SDS011;40968;52.342;5.528;2023-09-12T04:11:13;171.40;;;33.20;;
43160;SDS011;40968;52.342;5.528;2023-09-12T04:13:39;164.05;;;36.63;;
43160;SDS011;40968;52.342;5.528;2023-09-12T04:16:06;163.25;;;31.88;;
43160;SDS011;40968;52.342;5.528;2023-09-12T04:18:33;166.48;;;33.13;;
43160;SDS011;40968;52.342;5.528;2023-09-12T04:21:01;149.02;;;32.17;;
43160;SDS011;40968;52.342;5.528;2023-09-12T04:23:28;155.07;;;33.78;;
43160;SDS011;40968;52.342;5.528;2023-09-12T04:25:54;141.73;;;34.95;;
43160;SDS011;40968;52.342;5.528;2023-09-12T04:28:21;111.28;;;27.30;;
43160;SDS011;40968;52.342;5.528;2023-09-12T04:30:48;71.88;;;24.20;;
43160;SDS011;40968;52.342;5.528;2023-09-12T04:33:14;80.68;;;27.33;;
43160;SDS011;40968;52.342;5.528;2023-09-12T04:35:41;76.80;;;26.15;;
43160;SDS011;40968;52.342;5.528;2023-09-12T04:38:09;79.95;;;28.25;;
43160;SDS011;40968;52.342;5.528;2023-09-12T04:40:36;68.03;;;24.98;;
43160;SDS011;40968;52.342;5.528;2023-09-12T04:43:04;79.22;;;29.15;;
43160;SDS011;40968;52.342;5.528;2023-09-12T04:45:32;70.55;;;26.35;;
43160;SDS011;40968;52.342;5.528;2023-09-12T04:47:59;72.97;;;27.35;;
43160;SDS011;40968;52.342;5.528;2023-09-12T04:50:25;75.50;;;26.88;;
43160;SDS011;40968;52.342;5.528;2023-09-12T04:52:52;81.20;;;27.77;;
43160;SDS011;40968;52.342;5.528;2023-09-12T04:55:20;81.82;;;26.95;;
43160;SDS011;40968;52.342;5.528;2023-09-12T04:57:47;84.82;;;29.35;;
43160;SDS011;40968;52.342;5.528;2023-09-12T05:00:13;78.05;;;26.08;;
43160;SDS011;40968;52.342;5.528;2023-09-12T05:02:40;78.10;;;26.55;;
43160;SDS011;40968;52.342;5.528;2023-09-12T05:05:07;78.85;;;28.27;;
43160;SDS011;40968;52.342;5.528;2023-09-12T05:07:34;84.35;;;29.73;;
43160;SDS011;40968;52.342;5.528;2023-09-12T05:10:00;79.57;;;29.17;;
43160;SDS011;40968;52.342;5.528;2023-09-12T05:12:29;74.40;;;28.23;;
43160;SDS011;40968;52.342;5.528;2023-09-12T05:14:55;83.20;;;27.80;;
43160;SDS011;40968;52.342;5.528;2023-09-12T05:17:22;70.18;;;26.48;;
43160;SDS011;40968;52.342;5.528;2023-09-12T05:19:49;77.65;;;27.80;;
43160;SDS011;40968;52.342;5.528;2023-09-12T05:22:15;72.13;;;24.40;;
43160;SDS011;40968;52.342;5.528;2023-09-12T05:24:42;78.32;;;27.98;;
43160;SDS011;40968;52.342;5.528;2023-09-12T05:27:09;70.85;;;26.10;;
43160;SDS011;40968;52.342;5.528;2023-09-12T05:29:37;84.95;;;29.92;;
43160;SDS011;40968;52.342;5.528;2023-09-12T05:32:04;71.50;;;24.90;;
43160;SDS011;40968;52.342;5.528;2023-09-12T05:34:31;82.15;;;30.38;;
43160;SDS011;40968;52.342;5.528;2023-09-12T05:36:58;92.90;;;29.90;;
43160;SDS011;40968;52.342;5.528;2023-09-12T05:39:24;87.80;;;31.65;;
43160;SDS011;40968;52.342;5.528;2023-09-12T05:41:51;85.35;;;29.95;;
43160;SDS011;40968;52.342;5.528;2023-09-12T05:44:17;82.80;;;29.02;;
43160;SDS011;40968;52.342;5.528;2023-09-12T05:46:46;91.28;;;31.05;;
43160;SDS011;40968;52.342;5.528;2023-09-12T05:49:13;82.53;;;30.33;;
43160;SDS011;40968;52.342;5.528;2023-09-12T05:51:39;95.78;;;32.33;;
43160;SDS011;40968;52.342;5.528;2023-09-12T05:54:07;86.28;;;28.40;;
43160;SDS011;40968;52.342;5.528;2023-09-12T05:56:34;99.28;;;30.92;;
43160;SDS011;40968;52.342;5.528;2023-09-12T05:59:00;85.22;;;29.88;;
43160;SDS011;40968;52.342;5.528;2023-09-12T06:01:27;104.05;;;33.10;;
43160;SDS011;40968;52.342;5.528;2023-09-12T06:03:55;85.03;;;27.02;;
43160;SDS011;40968;52.342;5.528;2023-09-12T06:06:22;94.35;;;32.38;;
43160;SDS011;40968;52.342;5.528;2023-09-12T06:08:49;96.95;;;32.63;;
43160;SDS011;40968;52.342;5.528;2023-09-12T06:11:15;92.15;;;31.40;;
43160;SDS011;40968;52.342;5.528;2023-09-12T06:13:42;84.88;;;29.27;;
43160;SDS011;40968;52.342;5.528;2023-09-12T06:16:09;100.28;;;31.35;;
43160;SDS011;40968;52.342;5.528;2023-09-12T06:18:35;98.95;;;31.52;;
43160;SDS011;40968;52.342;5.528;2023-09-12T06:21:03;89.32;;;29.25;;
43160;SDS011;40968;52.342;5.528;2023-09-12T06:23:33;95.72;;;31.45;;
43160;SDS011;40968;52.342;5.528;2023-09-12T06:26:00;93.25;;;29.42;;
43160;SDS011;40968;52.342;5.528;2023-09-12T06:28:27;105.85;;;33.00;;
43160;SDS011;40968;52.342;5.528;2023-09-12T06:30:55;108.47;;;34.47;;
43160;SDS011;40968;52.342;5.528;2023-09-12T06:33:22;106.28;;;33.50;;
43160;SDS011;40968;52.342;5.528;2023-09-12T06:35:48;91.10;;;30.60;;
43160;SDS011;40968;52.342;5.528;2023-09-12T06:38:19;102.50;;;31.30;;
43160;SDS011;40968;52.342;5.528;2023-09-12T06:40:46;103.32;;;32.15;;
43160;SDS011;40968;52.342;5.528;2023-09-12T06:43:13;98.22;;;32.42;;
43160;SDS011;40968;52.342;5.528;2023-09-12T06:45:40;105.13;;;32.33;;
43160;SDS011;40968;52.342;5.528;2023-09-12T06:48:07;110.47;;;33.55;;
43160;SDS011;40968;52.342;5.528;2023-09-12T06:50:33;95.82;;;30.15;;
43160;SDS011;40968;52.342;5.528;2023-09-12T06:53:02;102.65;;;33.20;;
43160;SDS011;40968;52.342;5.528;2023-09-12T06:55:32;107.45;;;31.55;;
43160;SDS011;40968;52.342;5.528;2023-09-12T06:57:59;95.57;;;30.42;;
43160;SDS011;40968;52.342;5.528;2023-09-12T07:00:25;95.13;;;31.58;;
43160;SDS011;40968;52.342;5.528;2023-09-12T07:02:52;95.90;;;32.65;;
43160;SDS011;40968;52.342;5.528;2023-09-12T07:05:19;104.80;;;32.38;;
43160;SDS011;40968;52.342;5.528;2023-09-12T07:07:45;100.95;;;33.60;;
43160;SDS011;40968;52.342;5.528;2023-09-12T07:10:12;110.47;;;34.25;;
43160;SDS011;40968;52.342;5.528;2023-09-12T07:12:40;95.50;;;32.70;;
43160;SDS011;40968;52.342;5.528;2023-09-12T07:15:07;109.95;;;32.92;;
43160;SDS011;40968;52.342;5.528;2023-09-12T07:17:34;103.75;;;31.92;;
43160;SDS011;40968;52.342;5.528;2023-09-12T07:20:01;90.05;;;31.15;;
43160;SDS011;40968;52.342;5.528;2023-09-12T07:22:29;98.85;;;31.88;;
43160;SDS011;40968;52.342;5.528;2023-09-12T07:24:59;78.07;;;26.92;;
43160;SDS011;40968;52.342;5.528;2023-09-12T07:27:26;88.90;;;29.33;;
43160;SDS011;40968;52.342;5.528;2023-09-12T07:29:55;85.45;;;28.98;;
43160;SDS011;40968;52.342;5.528;2023-09-12T07:32:22;88.38;;;28.48;;
43160;SDS011;40968;52.342;5.528;2023-09-12T07:34:49;79.78;;;27.33;;
43160;SDS011;40968;52.342;5.528;2023-09-12T07:37:16;79.82;;;28.73;;
43160;SDS011;40968;52.342;5.528;2023-09-12T07:39:43;82.38;;;27.85;;
43160;SDS011;40968;52.342;5.528;2023-09-12T07:42:09;82.53;;;26.65;;
43160;SDS011;40968;52.342;5.528;2023-09-12T07:44:36;83.40;;;25.75;;
43160;SDS011;40968;52.342;5.528;2023-09-12T07:47:04;94.40;;;28.77;;
43160;SDS011;40968;52.342;5.528;2023-09-12T07:49:31;77.75;;;26.33;;
43160;SDS011;40968;52.342;5.528;2023-09-12T07:51:58;65.22;;;21.80;;
43160;SDS011;40968;52.342;5.528;2023-09-12T07:54:24;84.75;;;28.63;;
43160;SDS011;40968;52.342;5.528;2023-09-12T07:56:51;78.38;;;26.45;;
43160;SDS011;40968;52.342;5.528;2023-09-12T07:59:18;90.05;;;28.65;;
43160;SDS011;40968;52.342;5.528;2023-09-12T08:01:44;75.43;;;25.45;;
43160;SDS011;40968;52.342;5.528;2023-09-12T08:04:12;90.47;;;29.52;;
43160;SDS011;40968;52.342;5.528;2023-09-12T08:06:39;89.40;;;27.63;;
43160;SDS011;40968;52.342;5.528;2023-09-12T08:09:06;80.57;;;25.50;;
43160;SDS011;40968;52.342;5.528;2023-09-12T08:11:33;91.75;;;28.63;;
43160;SDS011;40968;52.342;5.528;2023-09-12T08:13:59;85.47;;;27.58;;
43160;SDS011;40968;52.342;5.528;2023-09-12T08:16:26;88.60;;;28.88;;
43160;SDS011;40968;52.342;5.528;2023-09-12T08:18:53;94.97;;;30.23;;
43160;SDS011;40968;52.342;5.528;2023-09-12T08:21:21;84.20;;;27.50;;
43160;SDS011;40968;52.342;5.528;2023-09-12T08:23:48;103.53;;;29.10;;
43160;SDS011;40968;52.342;5.528;2023-09-12T08:26:14;91.35;;;29.60;;
43160;SDS011;40968;52.342;5.528;2023-09-12T08:28:41;88.25;;;28.13;;
43160;SDS011;40968;52.342;5.528;2023-09-12T08:31:08;84.75;;;28.63;;
43160;SDS011;40968;52.342;5.528;2023-09-12T08:33:35;83.97;;;27.92;;
43160;SDS011;40968;52.342;5.528;2023-09-12T08:36:01;81.45;;;27.65;;
43160;SDS011;40968;52.342;5.528;2023-09-12T08:38:29;95.07;;;30.20;;
43160;SDS011;40968;52.342;5.528;2023-09-12T08:40:56;94.00;;;29.77;;
43160;SDS011;40968;52.342;5.528;2023-09-12T08:43:22;90.78;;;28.85;;
43160;SDS011;40968;52.342;5.528;2023-09-12T08:45:49;95.40;;;30.70;;
43160;SDS011;40968;52.342;5.528;2023-09-12T08:48:17;95.20;;;31.52;;
43160;SDS011;40968;52.342;5.528;2023-09-12T08:50:45;98.22;;;30.38;;
43160;SDS011;40968;52.342;5.528;2023-09-12T08:53:15;109.35;;;32.53;;
43160;SDS011;40968;52.342;5.528;2023-09-12T08:55:47;105.57;;;32.15;;
43160;SDS011;40968;52.342;5.528;2023-09-12T08:58:13;107.07;;;32.90;;
43160;SDS011;40968;52.342;5.528;2023-09-12T09:00:41;99.00;;;29.42;;
43160;SDS011;40968;52.342;5.528;2023-09-12T09:03:08;97.72;;;29.90;;
43160;SDS011;40968;52.342;5.528;2023-09-12T09:05:35;93.82;;;29.33;;
43160;SDS011;40968;52.342;5.528;2023-09-12T09:08:05;102.05;;;33.50;;
43160;SDS011;40968;52.342;5.528;2023-09-12T09:10:33;92.82;;;30.70;;
43160;SDS011;40968;52.342;5.528;2023-09-12T09:13:01;98.00;;;31.27;;
43160;SDS011;40968;52.342;5.528;2023-09-12T09:15:31;90.10;;;28.88;;
43160;SDS011;40968;52.342;5.528;2023-09-12T09:17:58;96.35;;;29.45;;
43160;SDS011;40968;52.342;5.528;2023-09-12T09:20:29;93.40;;;29.25;;
43160;SDS011;40968;52.342;5.528;2023-09-12T09:22:58;83.78;;;28.50;;
43160;SDS011;40968;52.342;5.528;2023-09-12T09:25:26;83.85;;;26.42;;
43160;SDS011;40968;52.342;5.528;2023-09-12T09:27:52;88.50;;;28.10;;
43160;SDS011;40968;52.342;5.528;2023-09-12T09:30:23;77.95;;;26.50;;
43160;SDS011;40968;52.342;5.528;2023-09-12T09:33:05;94.55;;;28.88;;
43160;SDS011;40968;52.342;5.528;2023-09-12T09:35:32;75.75;;;25.88;;
43160;SDS011;40968;52.342;5.528;2023-09-12T09:37:59;75.30;;;26.35;;
43160;SDS011;40968;52.342;5.528;2023-09-12T09:40:25;87.53;;;28.05;;
43160;SDS011;40968;52.342;5.528;2023-09-12T09:42:53;81.85;;;24.95;;
43160;SDS011;40968;52.342;5.528;2023-09-12T09:45:19;84.95;;;26.90;;
43160;SDS011;40968;52.342;5.528;2023-09-12T09:47:47;78.97;;;25.90;;
43160;SDS011;40968;52.342;5.528;2023-09-12T09:50:15;79.70;;;24.10;;
43160;SDS011;40968;52.342;5.528;2023-09-12T09:52:42;64.55;;;23.23;;
43160;SDS011;40968;52.342;5.528;2023-09-12T09:55:12;66.53;;;23.48;;
43160;SDS011;40968;52.342;5.528;2023-09-12T09:57:40;71.72;;;22.67;;
43160;SDS011;40968;52.342;5.528;2023-09-12T10:00:07;73.80;;;22.27;;
43160;SDS011;40968;52.342;5.528;2023-09-12T10:02:39;67.60;;;20.90;;
43160;SDS011;40968;52.342;5.528;2023-09-12T10:05:08;59.33;;;20.33;;
43160;SDS011;40968;52.342;5.528;2023-09-12T10:07:37;66.85;;;20.23;;
43160;SDS011;40968;52.342;5.528;2023-09-12T10:10:04;52.88;;;17.55;;
43160;SDS011;40968;52.342;5.528;2023-09-12T10:12:31;62.60;;;18.92;;
43160;SDS011;40968;52.342;5.528;2023-09-12T10:15:01;62.43;;;19.93;;
43160;SDS011;40968;52.342;5.528;2023-09-12T10:17:32;60.63;;;19.40;;
43160;SDS011;40968;52.342;5.528;2023-09-12T10:20:03;60.45;;;17.60;;
43160;SDS011;40968;52.342;5.528;2023-09-12T10:22:37;53.63;;;17.20;;
43160;SDS011;40968;52.342;5.528;2023-09-12T10:25:07;51.85;;;16.52;;
43160;SDS011;40968;52.342;5.528;2023-09-12T10:27:35;50.38;;;16.52;;
43160;SDS011;40968;52.342;5.528;2023-09-12T10:30:02;44.38;;;14.43;;
43160;SDS011;40968;52.342;5.528;2023-09-12T10:32:30;49.58;;;14.70;;
43160;SDS011;40968;52.342;5.528;2023-09-12T10:34:59;53.95;;;16.70;;
43160;SDS011;40968;52.342;5.528;2023-09-12T10:37:26;53.60;;;17.13;;
43160;SDS011;40968;52.342;5.528;2023-09-12T10:39:57;55.50;;;16.27;;
43160;SDS011;40968;52.342;5.528;2023-09-12T10:42:26;45.33;;;15.18;;
43160;SDS011;40968;52.342;5.528;2023-09-12T10:44:53;48.50;;;16.02;;
43160;SDS011;40968;52.342;5.528;2023-09-12T10:47:21;43.15;;;15.52;;
43160;SDS011;40968;52.342;5.528;2023-09-12T10:49:48;48.00;;;16.52;;
43160;SDS011;40968;52.342;5.528;2023-09-12T10:52:23;48.80;;;14.35;;
43160;SDS011;40968;52.342;5.528;2023-09-12T10:54:50;41.85;;;14.52;;
43160;SDS011;40968;52.342;5.528;2023-09-12T10:57:19;50.03;;;13.60;;
43160;SDS011;40968;52.342;5.528;2023-09-12T11:02:37;36.40;;;11.95;;
43160;SDS011;40968;52.342;5.528;2023-09-12T11:05:07;36.22;;;12.98;;
43160;SDS011;40968;52.342;5.528;2023-09-12T11:08:01;38.05;;;13.18;;
43160;SDS011;40968;52.342;5.528;2023-09-12T11:10:29;44.05;;;13.52;;
43160;SDS011;40968;52.342;5.528;2023-09-12T11:12:58;45.25;;;13.40;;
43160;SDS011;40968;52.342;5.528;2023-09-12T11:15:25;32.10;;;11.52;;
43160;SDS011;40968;52.342;5.528;2023-09-12T11:18:00;40.78;;;13.00;;
43160;SDS011;40968;52.342;5.528;2023-09-12T11:20:48;42.95;;;14.20;;
43160;SDS011;40968;52.342;5.528;2023-09-12T11:23:17;37.65;;;12.90;;
43160;SDS011;40968;52.342;5.528;2023-09-12T11:25:44;39.25;;;11.65;;
43160;SDS011;40968;52.342;5.528;2023-09-12T11:28:12;26.13;;;8.90;;
43160;SDS011;40968;52.342;5.528;2023-09-12T11:30:39;25.67;;;9.55;;
43160;SDS011;40968;52.342;5.528;2023-09-12T11:33:21;28.77;;;9.90;;
43160;SDS011;40968;52.342;5.528;2023-09-12T11:35:51;29.20;;;10.90;;
43160;SDS011;40968;52.342;5.528;2023-09-12T11:38:25;28.67;;;9.77;;
43160;SDS011;40968;52.342;5.528;2023-09-12T11:40:53;29.17;;;8.95;;
43160;SDS011;40968;52.342;5.528;2023-09-12T11:43:22;20.75;;;7.78;;
43160;SDS011;40968;52.342;5.528;2023-09-12T11:45:50;23.63;;;8.48;;
43160;SDS011;40968;52.342;5.528;2023-09-12T11:48:17;23.23;;;9.52;;
43160;SDS011;40968;52.342;5.528;2023-09-12T11:50:48;28.13;;;9.38;;
43160;SDS011;40968;52.342;5.528;2023-09-12T11:53:19;24.60;;;9.82;;
43160;SDS011;40968;52.342;5.528;2023-09-12T11:55:47;25.48;;;9.13;;
43160;SDS011;40968;52.342;5.528;2023-09-12T11:58:16;27.77;;;10.10;;
43160;SDS011;40968;52.342;5.528;2023-09-12T12:00:45;27.63;;;9.20;;
43160;SDS011;40968;52.342;5.528;2023-09-12T12:03:13;24.88;;;9.27;;
43160;SDS011;40968;52.342;5.528;2023-09-12T12:05:40;25.85;;;10.05;;
43160;SDS011;40968;52.342;5.528;2023-09-12T12:08:07;24.52;;;9.05;;
43160;SDS011;40968;52.342;5.528;2023-09-12T12:10:34;31.08;;;10.20;;
43160;SDS011;40968;52.342;5.528;2023-09-12T12:13:01;24.63;;;9.27;;
43160;SDS011;40968;52.342;5.528;2023-09-12T12:15:27;23.00;;;7.93;;
43160;SDS011;40968;52.342;5.528;2023-09-12T12:17:55;20.77;;;7.63;;
43160;SDS011;40968;52.342;5.528;2023-09-12T12:20:22;23.60;;;7.72;;
43160;SDS011;40968;52.342;5.528;2023-09-12T12:22:49;21.55;;;8.75;;
43160;SDS011;40968;52.342;5.528;2023-09-12T12:25:17;22.02;;;7.28;;
43160;SDS011;40968;52.342;5.528;2023-09-12T12:27:43;20.48;;;6.55;;
43160;SDS011;40968;52.342;5.528;2023-09-12T12:30:11;14.40;;;5.90;;
43160;SDS011;40968;52.342;5.528;2023-09-12T12:32:39;11.93;;;5.25;;
43160;SDS011;40968;52.342;5.528;2023-09-12T12:35:09;17.70;;;6.00;;
43160;SDS011;40968;52.342;5.528;2023-09-12T12:37:36;19.55;;;4.30;;
43160;SDS011;40968;52.342;5.528;2023-09-12T12:40:03;9.80;;;4.30;;
43160;SDS011;40968;52.342;5.528;2023-09-12T12:42:34;14.38;;;5.32;;
43160;SDS011;40968;52.342;5.528;2023-09-12T12:45:10;18.65;;;5.95;;
43160;SDS011;40968;52.342;5.528;2023-09-12T12:47:37;17.13;;;6.40;;
43160;SDS011;40968;52.342;5.528;2023-09-12T12:50:08;21.50;;;6.60;;
43160;SDS011;40968;52.342;5.528;2023-09-12T12:52:37;21.95;;;7.45;;
43160;SDS011;40968;52.342;5.528;2023-09-12T12:55:04;17.60;;;7.57;;
43160;SDS011;40968;52.342;5.528;2023-09-12T12:57:31;20.88;;;8.25;;
43160;SDS011;40968;52.342;5.528;2023-09-12T12:59:58;22.83;;;8.23;;
43160;SDS011;40968;52.342;5.528;2023-09-12T13:02:25;23.40;;;9.57;;
43160;SDS011;40968;52.342;5.528;2023-09-12T13:04:52;27.58;;;8.90;;
43160;SDS011;40968;52.342;5.528;2023-09-12T13:07:20;23.40;;;8.70;;
43160;SDS011;40968;52.342;5.528;2023-09-12T13:09:47;30.67;;;10.98;;
43160;SDS011;40968;52.342;5.528;2023-09-12T13:12:13;27.23;;;9.90;;
43160;SDS011;40968;52.342;5.528;2023-09-12T13:14:42;29.48;;;11.23;;
43160;SDS011;40968;52.342;5.528;2023-09-12T13:17:09;31.25;;;11.20;;
43160;SDS011;40968;52.342;5.528;2023-09-12T13:19:36;31.73;;;12.18;;
43160;SDS011;40968;52.342;5.528;2023-09-12T13:22:02;36.38;;;12.40;;
43160;SDS011;40968;52.342;5.528;2023-09-12T13:24:31;35.25;;;12.38;;
43160;SDS011;40968;52.342;5.528;2023-09-12T13:26:57;29.50;;;11.48;;
43160;SDS011;40968;52.342;5.528;2023-09-12T13:29:24;32.55;;;11.90;;
43160;SDS011;40968;52.342;5.528;2023-09-12T13:31:51;31.08;;;10.20;;
43160;SDS011;40968;52.342;5.528;2023-09-12T13:34:17;28.45;;;9.73;;
43160;SDS011;40968;52.342;5.528;2023-09-12T13:36:44;34.10;;;12.00;;
43160;SDS011;40968;52.342;5.528;2023-09-12T13:39:11;38.63;;;13.10;;
43160;SDS011;40968;52.342;5.528;2023-09-12T13:41:39;41.75;;;15.43;;
43160;SDS011;40968;52.342;5.528;2023-09-12T13:44:06;46.20;;;16.02;;
43160;SDS011;40968;52.342;5.528;2023-09-12T13:46:32;36.97;;;15.80;;
43160;SDS011;40968;52.342;5.528;2023-09-12T13:48:59;47.47;;;16.42;;
43160;SDS011;40968;52.342;5.528;2023-09-12T13:51:28;44.85;;;16.40;;
43160;SDS011;40968;52.342;5.528;2023-09-12T13:53:55;48.13;;;16.10;;
43160;SDS011;40968;52.342;5.528;2023-09-12T13:56:21;45.35;;;15.80;;
43160;SDS011;40968;52.342;5.528;2023-09-12T13:58:52;45.83;;;16.00;;
43160;SDS011;40968;52.342;5.528;2023-09-12T14:01:19;48.45;;;17.85;;
43160;SDS011;40968;52.342;5.528;2023-09-12T14:03:46;44.30;;;16.40;;
43160;SDS011;40968;52.342;5.528;2023-09-12T14:06:12;44.33;;;15.88;;
43160;SDS011;40968;52.342;5.528;2023-09-12T14:08:39;46.47;;;16.20;;
43160;SDS011;40968;52.342;5.528;2023-09-12T14:11:06;51.33;;;18.13;;
43160;SDS011;40968;52.342;5.528;2023-09-12T14:13:32;48.70;;;18.30;;
43160;SDS011;40968;52.342;5.528;2023-09-12T14:16:00;50.88;;;18.10;;
43160;SDS011;40968;52.342;5.528;2023-09-12T14:18:27;53.55;;;18.80;;
43160;SDS011;40968;52.342;5.528;2023-09-12T14:20:54;56.40;;;17.83;;
43160;SDS011;40968;52.342;5.528;2023-09-12T14:23:20;61.75;;;20.08;;
43160;SDS011;40968;52.342;5.528;2023-09-12T14:25:47;53.58;;;18.55;;